Main page
Satellite images 15-day forecastsClimateMarine weather Cyclones Lightning AirportsFAQ Newsletter About
Weather : Europe Africa North America South America Asia Australia-Oceania Others
Languages Contact

Liège, Belgium

Bierset

latitude: 50-39N, longitude: 005-27E, elevation: 186 m


METAR: EBLG 241220Z VRB03KT 9000 FEW035 19/10 Q1018 NOSIG
short-TAF: out of date (36864 hours)
long-TAF: EBLG 241114Z 2412/2518 04006KT 8000 SCT030 PROB40 2501/2506 4000 BR PROB30 TEMPO 2516/2518 SHRA

Time: 14:34 (12:34 UTC)

Current weather observation

The report was made 14 minutes ago, at 12:20 UTC  
Wind 03 kt from variable directions
Temperature 19°C
Humidity 56%
Pressure 1018 hPa
Visibility 9000 m
Few clouds at a height of 3500 ft

Change units

Forecast

The report was made 1 hour and 7 minutes ago, at 11:27 UTC  
Forecast valid from 24 at 12 UTC to 25 at 18 UTC
Wind 06 kt from northeast
Visibility 8000 m
Scattered clouds at a height of 3000 ft
Probability 40%
from 25 at 01 UTC to 25 at 06 UTC
Visibility 4000 m
mist
Probability 30% :
Temporary
from 25 at 16 UTC to 25 at 18 UTC
rain showers
The information on this site is subject to a disclaimer
Weather : Europe Africa North America South America Asia Australia-Oceania Others
Satellite images 15-day forecastsClimateMarine weather Cyclones Lightning AirportsFAQ Languages Contact Newsletter About